sensor_id;sensor_type;location;lat;lon;timestamp;temperature;humidity
35970;DHT22;22448;51.298;6.430;2023-08-01T00:00:45;16.70;99.90
35970;DHT22;22448;51.298;6.430;2023-08-01T00:03:13;16.70;99.90
35970;DHT22;22448;51.298;6.430;2023-08-01T00:05:40;16.70;99.90
35970;DHT22;22448;51.298;6.430;2023-08-01T00:08:12;16.70;99.90
35970;DHT22;22448;51.298;6.430;2023-08-01T00:10:42;16.70;99.90
35970;DHT22;22448;51.298;6.430;2023-08-01T00:13:09;16.70;99.90
35970;DHT22;22448;51.298;6.430;2023-08-01T00:15:37;16.70;99.90
35970;DHT22;22448;51.298;6.430;2023-08-01T00:18:07;16.60;99.90
35970;DHT22;22448;51.298;6.430;2023-08-01T00:20:34;16.60;99.90
35970;DHT22;22448;51.298;6.430;2023-08-01T00:23:01;16.60;99.90
35970;DHT22;22448;51.298;6.430;2023-08-01T00:25:28;16.60;99.90
35970;DHT22;22448;51.298;6.430;2023-08-01T00:27:55;16.60;99.90
35970;DHT22;22448;51.298;6.430;2023-08-01T00:30:22;16.60;99.90
35970;DHT22;22448;51.298;6.430;2023-08-01T00:32:49;16.70;99.90
35970;DHT22;22448;51.298;6.430;2023-08-01T00:35:16;16.70;99.90
35970;DHT22;22448;51.298;6.430;2023-08-01T00:37:44;16.70;99.90
35970;DHT22;22448;51.298;6.430;2023-08-01T00:40:11;16.60;99.90
35970;DHT22;22448;51.298;6.430;2023-08-01T00:42:38;16.60;99.90
35970;DHT22;22448;51.298;6.430;2023-08-01T00:45:06;16.60;99.90
35970;DHT22;22448;51.298;6.430;2023-08-01T00:47:34;16.60;99.90
35970;DHT22;22448;51.298;6.430;2023-08-01T00:50:01;16.70;99.90
35970;DHT22;22448;51.298;6.430;2023-08-01T00:52:29;16.60;99.90
35970;DHT22;22448;51.298;6.430;2023-08-01T00:54:56;16.60;99.90
35970;DHT22;22448;51.298;6.430;2023-08-01T00:57:23;16.60;99.90
35970;DHT22;22448;51.298;6.430;2023-08-01T00:59:51;16.60;99.90
35970;DHT22;22448;51.298;6.430;2023-08-01T01:02:18;16.70;99.90
35970;DHT22;22448;51.298;6.430;2023-08-01T01:04:46;16.70;99.90
35970;DHT22;22448;51.298;6.430;2023-08-01T01:07:13;16.70;99.90
35970;DHT22;22448;51.298;6.430;2023-08-01T01:09:41;16.60;99.90
35970;DHT22;22448;51.298;6.430;2023-08-01T01:12:08;16.70;99.90
35970;DHT22;22448;51.298;6.430;2023-08-01T01:14:36;16.70;99.90
35970;DHT22;22448;51.298;6.430;2023-08-01T01:17:03;16.70;99.90
35970;DHT22;22448;51.298;6.430;2023-08-01T01:19:30;16.70;99.90
35970;DHT22;22448;51.298;6.430;2023-08-01T01:22:16;16.70;99.90
35970;DHT22;22448;51.298;6.430;2023-08-01T01:24:45;16.70;99.90
35970;DHT22;22448;51.298;6.430;2023-08-01T01:27:16;16.70;99.90
35970;DHT22;22448;51.298;6.430;2023-08-01T01:29:44;16.70;99.90
35970;DHT22;22448;51.298;6.430;2023-08-01T01:32:12;16.70;99.90
35970;DHT22;22448;51.298;6.430;2023-08-01T01:34:39;16.70;99.90
35970;DHT22;22448;51.298;6.430;2023-08-01T01:37:06;16.70;99.90
35970;DHT22;22448;51.298;6.430;2023-08-01T01:39:33;16.70;99.90
35970;DHT22;22448;51.298;6.430;2023-08-01T01:42:01;16.70;99.90
35970;DHT22;22448;51.298;6.430;2023-08-01T01:44:29;16.70;99.90
35970;DHT22;22448;51.298;6.430;2023-08-01T01:46:56;16.70;99.90
35970;DHT22;22448;51.298;6.430;2023-08-01T01:49:24;16.60;99.90
35970;DHT22;22448;51.298;6.430;2023-08-01T01:51:52;16.60;99.90
35970;DHT22;22448;51.298;6.430;2023-08-01T01:54:19;16.60;99.90
35970;DHT22;22448;51.298;6.430;2023-08-01T01:56:46;16.50;99.90
35970;DHT22;22448;51.298;6.430;2023-08-01T01:59:13;16.40;99.90
35970;DHT22;22448;51.298;6.430;2023-08-01T02:01:41;16.30;99.90
35970;DHT22;22448;51.298;6.430;2023-08-01T02:04:08;16.30;99.90
35970;DHT22;22448;51.298;6.430;2023-08-01T02:06:35;16.20;99.90
35970;DHT22;22448;51.298;6.430;2023-08-01T02:09:02;16.10;99.90
35970;DHT22;22448;51.298;6.430;2023-08-01T02:11:30;16.10;99.90
35970;DHT22;22448;51.298;6.430;2023-08-01T02:13:57;15.90;99.90
35970;DHT22;22448;51.298;6.430;2023-08-01T02:16:24;15.80;99.90
35970;DHT22;22448;51.298;6.430;2023-08-01T02:18:51;15.70;99.90
35970;DHT22;22448;51.298;6.430;2023-08-01T02:21:18;15.70;99.90
35970;DHT22;22448;51.298;6.430;2023-08-01T02:23:46;15.70;99.90
35970;DHT22;22448;51.298;6.430;2023-08-01T02:26:12;15.70;99.90
35970;DHT22;22448;51.298;6.430;2023-08-01T02:28:40;15.70;99.90
35970;DHT22;22448;51.298;6.430;2023-08-01T02:31:07;15.70;99.90
35970;DHT22;22448;51.298;6.430;2023-08-01T02:33:34;15.70;99.90
35970;DHT22;22448;51.298;6.430;2023-08-01T02:36:01;15.60;99.90
35970;DHT22;22448;51.298;6.430;2023-08-01T02:38:28;15.60;99.90
35970;DHT22;22448;51.298;6.430;2023-08-01T02:40:55;15.60;99.90
35970;DHT22;22448;51.298;6.430;2023-08-01T02:43:22;15.60;99.90
35970;DHT22;22448;51.298;6.430;2023-08-01T02:45:49;15.60;99.90
35970;DHT22;22448;51.298;6.430;2023-08-01T02:48:16;15.50;99.90
35970;DHT22;22448;51.298;6.430;2023-08-01T02:50:43;15.50;99.90
35970;DHT22;22448;51.298;6.430;2023-08-01T02:53:10;15.40;99.90
35970;DHT22;22448;51.298;6.430;2023-08-01T02:55:38;15.40;99.90
35970;DHT22;22448;51.298;6.430;2023-08-01T02:58:05;15.40;99.90
35970;DHT22;22448;51.298;6.430;2023-08-01T03:00:32;15.30;99.90
35970;DHT22;22448;51.298;6.430;2023-08-01T03:02:59;15.30;99.90
35970;DHT22;22448;51.298;6.430;2023-08-01T03:05:26;15.30;99.90
35970;DHT22;22448;51.298;6.430;2023-08-01T03:07:53;15.30;99.90
35970;DHT22;22448;51.298;6.430;2023-08-01T03:10:21;15.30;99.90
35970;DHT22;22448;51.298;6.430;2023-08-01T03:13:01;15.30;99.90
35970;DHT22;22448;51.298;6.430;2023-08-01T03:15:28;15.30;99.90
35970;DHT22;22448;51.298;6.430;2023-08-01T03:17:56;15.20;99.90
35970;DHT22;22448;51.298;6.430;2023-08-01T03:20:23;15.20;99.90
35970;DHT22;22448;51.298;6.430;2023-08-01T03:22:50;15.20;99.90
35970;DHT22;22448;51.298;6.430;2023-08-01T03:25:17;15.20;99.90
35970;DHT22;22448;51.298;6.430;2023-08-01T03:27:44;15.20;99.90
35970;DHT22;22448;51.298;6.430;2023-08-01T03:30:11;15.10;99.90
35970;DHT22;22448;51.298;6.430;2023-08-01T03:32:39;15.10;99.90
35970;DHT22;22448;51.298;6.430;2023-08-01T03:35:07;15.10;99.90
35970;DHT22;22448;51.298;6.430;2023-08-01T03:37:34;15.00;99.90
35970;DHT22;22448;51.298;6.430;2023-08-01T03:40:01;14.90;99.90
35970;DHT22;22448;51.298;6.430;2023-08-01T03:42:28;14.90;99.90
35970;DHT22;22448;51.298;6.430;2023-08-01T03:44:56;14.90;99.90
35970;DHT22;22448;51.298;6.430;2023-08-01T03:47:23;15.00;99.90
35970;DHT22;22448;51.298;6.430;2023-08-01T03:49:50;15.00;99.90
35970;DHT22;22448;51.298;6.430;2023-08-01T03:52:17;15.00;99.90
35970;DHT22;22448;51.298;6.430;2023-08-01T03:54:44;15.00;99.90
35970;DHT22;22448;51.298;6.430;2023-08-01T03:57:11;15.00;99.90
35970;DHT22;22448;51.298;6.430;2023-08-01T03:59:38;15.00;99.90
35970;DHT22;22448;51.298;6.430;2023-08-01T04:02:05;14.90;99.90
35970;DHT22;22448;51.298;6.430;2023-08-01T04:04:32;14.90;99.90
35970;DHT22;22448;51.298;6.430;2023-08-01T04:06:59;14.90;99.90
35970;DHT22;22448;51.298;6.430;2023-08-01T04:09:26;15.00;99.90
35970;DHT22;22448;51.298;6.430;2023-08-01T04:11:53;15.00;99.90
35970;DHT22;22448;51.298;6.430;2023-08-01T04:14:21;15.00;99.90
35970;DHT22;22448;51.298;6.430;2023-08-01T04:16:48;15.00;99.90
35970;DHT22;22448;51.298;6.430;2023-08-01T04:19:15;15.00;99.90
35970;DHT22;22448;51.298;6.430;2023-08-01T04:21:42;15.00;99.90
35970;DHT22;22448;51.298;6.430;2023-08-01T04:24:10;15.00;99.90
35970;DHT22;22448;51.298;6.430;2023-08-01T04:26:37;15.00;99.90
35970;DHT22;22448;51.298;6.430;2023-08-01T04:29:05;15.00;99.90
35970;DHT22;22448;51.298;6.430;2023-08-01T04:31:32;15.00;99.90
35970;DHT22;22448;51.298;6.430;2023-08-01T04:33:59;15.00;99.90
35970;DHT22;22448;51.298;6.430;2023-08-01T04:36:26;15.00;99.90
35970;DHT22;22448;51.298;6.430;2023-08-01T04:38:53;15.00;99.90
35970;DHT22;22448;51.298;6.430;2023-08-01T04:41:20;14.90;99.90
35970;DHT22;22448;51.298;6.430;2023-08-01T04:43:47;14.90;99.90
35970;DHT22;22448;51.298;6.430;2023-08-01T04:46:14;14.90;99.90
35970;DHT22;22448;51.298;6.430;2023-08-01T04:48:41;14.90;99.90
35970;DHT22;22448;51.298;6.430;2023-08-01T04:51:08;14.90;99.90
35970;DHT22;22448;51.298;6.430;2023-08-01T04:53:35;14.90;99.90
35970;DHT22;22448;51.298;6.430;2023-08-01T04:56:03;15.00;99.90
35970;DHT22;22448;51.298;6.430;2023-08-01T04:58:30;15.00;99.90
35970;DHT22;22448;51.298;6.430;2023-08-01T05:00:57;15.00;99.90
35970;DHT22;22448;51.298;6.430;2023-08-01T05:03:24;15.00;99.90
35970;DHT22;22448;51.298;6.430;2023-08-01T05:05:51;15.10;99.90
35970;DHT22;22448;51.298;6.430;2023-08-01T05:08:18;15.10;99.90
35970;DHT22;22448;51.298;6.430;2023-08-01T05:10:46;15.20;99.90
35970;DHT22;22448;51.298;6.430;2023-08-01T05:13:13;15.20;99.90
35970;DHT22;22448;51.298;6.430;2023-08-01T05:15:40;15.30;99.90
35970;DHT22;22448;51.298;6.430;2023-08-01T05:18:07;15.30;99.90
35970;DHT22;22448;51.298;6.430;2023-08-01T05:20:34;15.30;99.90
35970;DHT22;22448;51.298;6.430;2023-08-01T05:23:01;15.30;99.90
35970;DHT22;22448;51.298;6.430;2023-08-01T05:25:28;15.40;99.90
35970;DHT22;22448;51.298;6.430;2023-08-01T05:27:55;15.40;99.90
35970;DHT22;22448;51.298;6.430;2023-08-01T05:30:23;15.40;99.90
35970;DHT22;22448;51.298;6.430;2023-08-01T05:32:50;15.30;99.90
35970;DHT22;22448;51.298;6.430;2023-08-01T05:35:17;15.40;99.90
35970;DHT22;22448;51.298;6.430;2023-08-01T05:37:45;15.30;99.90
35970;DHT22;22448;51.298;6.430;2023-08-01T05:40:12;15.40;99.90
35970;DHT22;22448;51.298;6.430;2023-08-01T05:42:39;15.40;99.90
35970;DHT22;22448;51.298;6.430;2023-08-01T05:45:07;15.40;99.90
35970;DHT22;22448;51.298;6.430;2023-08-01T05:47:34;15.40;99.90
35970;DHT22;22448;51.298;6.430;2023-08-01T05:50:03;15.40;99.90
35970;DHT22;22448;51.298;6.430;2023-08-01T05:52:30;15.30;99.90
35970;DHT22;22448;51.298;6.430;2023-08-01T05:54:57;15.30;99.90
35970;DHT22;22448;51.298;6.430;2023-08-01T05:57:24;15.40;99.90
35970;DHT22;22448;51.298;6.430;2023-08-01T05:59:51;15.40;99.90
35970;DHT22;22448;51.298;6.430;2023-08-01T06:02:18;15.40;99.90
35970;DHT22;22448;51.298;6.430;2023-08-01T06:04:45;15.40;99.90
35970;DHT22;22448;51.298;6.430;2023-08-01T06:07:12;15.60;99.90
35970;DHT22;22448;51.298;6.430;2023-08-01T06:09:40;15.80;99.90
35970;DHT22;22448;51.298;6.430;2023-08-01T06:12:07;15.90;99.90
35970;DHT22;22448;51.298;6.430;2023-08-01T06:14:34;16.00;99.90
35970;DHT22;22448;51.298;6.430;2023-08-01T06:17:01;16.00;99.90
35970;DHT22;22448;51.298;6.430;2023-08-01T06:19:28;16.00;99.90
35970;DHT22;22448;51.298;6.430;2023-08-01T06:21:55;16.00;99.90
35970;DHT22;22448;51.298;6.430;2023-08-01T06:24:22;16.00;99.90
35970;DHT22;22448;51.298;6.430;2023-08-01T06:26:50;16.20;99.90
35970;DHT22;22448;51.298;6.430;2023-08-01T06:29:17;17.60;99.90
35970;DHT22;22448;51.298;6.430;2023-08-01T06:31:44;17.90;99.90
35970;DHT22;22448;51.298;6.430;2023-08-01T06:34:11;17.90;99.90
35970;DHT22;22448;51.298;6.430;2023-08-01T06:36:38;17.80;99.90
35970;DHT22;22448;51.298;6.430;2023-08-01T06:39:05;17.90;99.90
35970;DHT22;22448;51.298;6.430;2023-08-01T06:41:32;17.80;99.90
35970;DHT22;22448;51.298;6.430;2023-08-01T06:43:59;17.40;99.90
35970;DHT22;22448;51.298;6.430;2023-08-01T06:46:27;17.30;99.90
35970;DHT22;22448;51.298;6.430;2023-08-01T06:48:54;17.40;99.90
35970;DHT22;22448;51.298;6.430;2023-08-01T06:51:21;18.40;99.90
35970;DHT22;22448;51.298;6.430;2023-08-01T06:53:48;19.30;99.90
35970;DHT22;22448;51.298;6.430;2023-08-01T06:56:15;19.30;99.90
35970;DHT22;22448;51.298;6.430;2023-08-01T06:58:42;18.90;99.90
35970;DHT22;22448;51.298;6.430;2023-08-01T07:01:09;18.60;99.90
35970;DHT22;22448;51.298;6.430;2023-08-01T07:03:36;18.30;99.90
35970;DHT22;22448;51.298;6.430;2023-08-01T07:06:03;17.90;99.90
35970;DHT22;22448;51.298;6.430;2023-08-01T07:08:33;17.70;99.90
35970;DHT22;22448;51.298;6.430;2023-08-01T07:11:00;17.70;99.90
35970;DHT22;22448;51.298;6.430;2023-08-01T07:13:28;17.90;99.90
35970;DHT22;22448;51.298;6.430;2023-08-01T07:15:55;17.70;99.90
35970;DHT22;22448;51.298;6.430;2023-08-01T07:18:22;17.70;99.90
35970;DHT22;22448;51.298;6.430;2023-08-01T07:20:59;18.20;99.90
35970;DHT22;22448;51.298;6.430;2023-08-01T07:23:26;18.90;99.90
35970;DHT22;22448;51.298;6.430;2023-08-01T07:25:53;18.80;99.90
35970;DHT22;22448;51.298;6.430;2023-08-01T07:28:20;19.30;99.90
35970;DHT22;22448;51.298;6.430;2023-08-01T07:30:47;19.30;99.90
35970;DHT22;22448;51.298;6.430;2023-08-01T07:33:16;19.10;99.90
35970;DHT22;22448;51.298;6.430;2023-08-01T07:35:43;18.60;99.90
35970;DHT22;22448;51.298;6.430;2023-08-01T07:38:10;18.80;99.90
35970;DHT22;22448;51.298;6.430;2023-08-01T07:40:37;18.60;99.90
35970;DHT22;22448;51.298;6.430;2023-08-01T07:43:04;18.40;99.90
35970;DHT22;22448;51.298;6.430;2023-08-01T07:45:33;19.00;99.90
35970;DHT22;22448;51.298;6.430;2023-08-01T07:48:01;20.40;99.90
35970;DHT22;22448;51.298;6.430;2023-08-01T07:50:28;20.10;99.90
35970;DHT22;22448;51.298;6.430;2023-08-01T07:52:55;19.70;99.90
35970;DHT22;22448;51.298;6.430;2023-08-01T07:55:22;19.50;99.90
35970;DHT22;22448;51.298;6.430;2023-08-01T07:57:50;19.70;99.90
35970;DHT22;22448;51.298;6.430;2023-08-01T08:00:17;19.70;99.90
35970;DHT22;22448;51.298;6.430;2023-08-01T08:02:45;19.40;99.90
35970;DHT22;22448;51.298;6.430;2023-08-01T08:05:12;19.10;99.90
35970;DHT22;22448;51.298;6.430;2023-08-01T08:07:40;18.60;99.90
35970;DHT22;22448;51.298;6.430;2023-08-01T08:10:07;18.20;99.90
35970;DHT22;22448;51.298;6.430;2023-08-01T08:12:34;18.00;99.90
35970;DHT22;22448;51.298;6.430;2023-08-01T08:15:01;17.90;99.90
35970;DHT22;22448;51.298;6.430;2023-08-01T08:17:28;17.80;99.90
35970;DHT22;22448;51.298;6.430;2023-08-01T08:19:55;17.70;99.90
35970;DHT22;22448;51.298;6.430;2023-08-01T08:22:22;17.70;99.90
35970;DHT22;22448;51.298;6.430;2023-08-01T08:24:49;17.80;99.90
35970;DHT22;22448;51.298;6.430;2023-08-01T08:27:16;17.80;99.90
35970;DHT22;22448;51.298;6.430;2023-08-01T08:29:43;18.60;99.90
35970;DHT22;22448;51.298;6.430;2023-08-01T08:32:10;19.70;99.90
35970;DHT22;22448;51.298;6.430;2023-08-01T08:34:37;20.40;99.90
35970;DHT22;22448;51.298;6.430;2023-08-01T08:37:06;21.20;99.90
35970;DHT22;22448;51.298;6.430;2023-08-01T08:39:33;22.40;99.90
35970;DHT22;22448;51.298;6.430;2023-08-01T08:42:00;23.20;99.90
35970;DHT22;22448;51.298;6.430;2023-08-01T08:44:27;23.90;99.90
35970;DHT22;22448;51.298;6.430;2023-08-01T08:47:02;23.90;99.90
35970;DHT22;22448;51.298;6.430;2023-08-01T08:49:33;23.70;99.90
35970;DHT22;22448;51.298;6.430;2023-08-01T08:52:00;22.80;99.90
35970;DHT22;22448;51.298;6.430;2023-08-01T08:54:30;22.40;99.90
35970;DHT22;22448;51.298;6.430;2023-08-01T08:56:58;21.70;99.90
35970;DHT22;22448;51.298;6.430;2023-08-01T08:59:27;21.10;99.90
35970;DHT22;22448;51.298;6.430;2023-08-01T09:01:56;20.60;99.90
35970;DHT22;22448;51.298;6.430;2023-08-01T09:04:23;20.10;99.90
35970;DHT22;22448;51.298;6.430;2023-08-01T09:06:51;19.50;99.90
35970;DHT22;22448;51.298;6.430;2023-08-01T09:09:21;19.10;99.90
35970;DHT22;22448;51.298;6.430;2023-08-01T09:11:53;19.00;99.90
35970;DHT22;22448;51.298;6.430;2023-08-01T09:14:22;19.30;99.90
35970;DHT22;22448;51.298;6.430;2023-08-01T09:16:50;19.70;99.90
35970;DHT22;22448;51.298;6.430;2023-08-01T09:19:22;19.80;99.90
35970;DHT22;22448;51.298;6.430;2023-08-01T09:21:50;20.00;99.90
35970;DHT22;22448;51.298;6.430;2023-08-01T09:24:19;20.10;99.90
35970;DHT22;22448;51.298;6.430;2023-08-01T09:26:48;20.10;99.90
35970;DHT22;22448;51.298;6.430;2023-08-01T09:29:19;20.00;99.90
35970;DHT22;22448;51.298;6.430;2023-08-01T09:31:47;19.90;99.90
35970;DHT22;22448;51.298;6.430;2023-08-01T09:34:24;19.90;99.90
35970;DHT22;22448;51.298;6.430;2023-08-01T09:36:57;19.90;99.90
35970;DHT22;22448;51.298;6.430;2023-08-01T09:39:24;19.90;99.90
35970;DHT22;22448;51.298;6.430;2023-08-01T09:41:58;19.90;99.90
35970;DHT22;22448;51.298;6.430;2023-08-01T09:44:27;19.70;99.90
35970;DHT22;22448;51.298;6.430;2023-08-01T09:46:56;19.70;99.90
35970;DHT22;22448;51.298;6.430;2023-08-01T09:49:24;19.60;99.90
35970;DHT22;22448;51.298;6.430;2023-08-01T09:51:51;19.50;99.90
35970;DHT22;22448;51.298;6.430;2023-08-01T09:54:20;19.60;99.90
35970;DHT22;22448;51.298;6.430;2023-08-01T09:56:50;19.50;99.90
35970;DHT22;22448;51.298;6.430;2023-08-01T09:59:25;19.50;99.90
35970;DHT22;22448;51.298;6.430;2023-08-01T10:01:56;19.60;99.90
35970;DHT22;22448;51.298;6.430;2023-08-01T10:04:27;20.10;99.90
35970;DHT22;22448;51.298;6.430;2023-08-01T10:06:58;20.40;99.90
35970;DHT22;22448;51.298;6.430;2023-08-01T10:09:27;20.60;99.90
35970;DHT22;22448;51.298;6.430;2023-08-01T10:11:57;20.60;99.90
35970;DHT22;22448;51.298;6.430;2023-08-01T10:14:25;20.30;99.90
35970;DHT22;22448;51.298;6.430;2023-08-01T10:16:53;20.10;99.90
35970;DHT22;22448;51.298;6.430;2023-08-01T10:19:21;20.00;99.90
35970;DHT22;22448;51.298;6.430;2023-08-01T10:21:50;19.80;99.90
35970;DHT22;22448;51.298;6.430;2023-08-01T10:24:20;19.60;99.90
35970;DHT22;22448;51.298;6.430;2023-08-01T10:26:48;19.50;99.90
35970;DHT22;22448;51.298;6.430;2023-08-01T10:29:15;19.50;99.90
35970;DHT22;22448;51.298;6.430;2023-08-01T10:31:54;19.60;99.90
35970;DHT22;22448;51.298;6.430;2023-08-01T10:34:22;19.70;99.90
35970;DHT22;22448;51.298;6.430;2023-08-01T10:36:56;19.70;99.90
35970;DHT22;22448;51.298;6.430;2023-08-01T10:39:25;19.80;99.90
35970;DHT22;22448;51.298;6.430;2023-08-01T10:42:00;20.00;99.90
35970;DHT22;22448;51.298;6.430;2023-08-01T10:44:28;20.30;99.90
35970;DHT22;22448;51.298;6.430;2023-08-01T10:47:03;20.60;99.90
35970;DHT22;22448;51.298;6.430;2023-08-01T10:49:43;20.70;99.90
35970;DHT22;22448;51.298;6.430;2023-08-01T10:52:24;20.70;99.90
35970;DHT22;22448;51.298;6.430;2023-08-01T10:55:04;20.50;99.90
35970;DHT22;22448;51.298;6.430;2023-08-01T10:57:36;20.20;99.90
35970;DHT22;22448;51.298;6.430;2023-08-01T11:00:04;20.10;99.90
35970;DHT22;22448;51.298;6.430;2023-08-01T11:02:36;20.30;99.90
35970;DHT22;22448;51.298;6.430;2023-08-01T11:05:05;20.70;99.90
35970;DHT22;22448;51.298;6.430;2023-08-01T11:07:36;20.90;99.90
35970;DHT22;22448;51.298;6.430;2023-08-01T11:10:08;21.00;99.90
35970;DHT22;22448;51.298;6.430;2023-08-01T11:12:38;20.90;99.90
35970;DHT22;22448;51.298;6.430;2023-08-01T11:15:07;20.80;99.90
35970;DHT22;22448;51.298;6.430;2023-08-01T11:17:54;20.70;99.90
35970;DHT22;22448;51.298;6.430;2023-08-01T11:20:23;20.50;99.90
35970;DHT22;22448;51.298;6.430;2023-08-01T11:22:59;20.20;99.90
35970;DHT22;22448;51.298;6.430;2023-08-01T11:25:45;20.00;99.90
35970;DHT22;22448;51.298;6.430;2023-08-01T11:28:16;19.80;99.90
35970;DHT22;22448;51.298;6.430;2023-08-01T11:30:44;19.70;99.90
35970;DHT22;22448;51.298;6.430;2023-08-01T11:33:17;19.80;99.90
35970;DHT22;22448;51.298;6.430;2023-08-01T11:35:45;19.80;99.90
35970;DHT22;22448;51.298;6.430;2023-08-01T11:38:13;19.70;99.90
35970;DHT22;22448;51.298;6.430;2023-08-01T11:40:40;19.60;99.90
35970;DHT22;22448;51.298;6.430;2023-08-01T11:43:07;19.60;99.90
35970;DHT22;22448;51.298;6.430;2023-08-01T11:45:34;19.50;99.90
35970;DHT22;22448;51.298;6.430;2023-08-01T11:48:02;19.40;99.90
35970;DHT22;22448;51.298;6.430;2023-08-01T11:50:29;19.30;99.90
35970;DHT22;22448;51.298;6.430;2023-08-01T11:52:56;19.30;99.90
35970;DHT22;22448;51.298;6.430;2023-08-01T11:55:26;19.30;99.90
35970;DHT22;22448;51.298;6.430;2023-08-01T11:57:57;19.10;99.90
35970;DHT22;22448;51.298;6.430;2023-08-01T12:00:27;18.80;99.90
35970;DHT22;22448;51.298;6.430;2023-08-01T12:03:05;18.60;99.90
35970;DHT22;22448;51.298;6.430;2023-08-01T12:05:33;18.40;99.90
35970;DHT22;22448;51.298;6.430;2023-08-01T12:08:14;18.40;99.90
35970;DHT22;22448;51.298;6.430;2023-08-01T12:10:43;18.40;99.90
35970;DHT22;22448;51.298;6.430;2023-08-01T12:13:24;18.60;99.90
35970;DHT22;22448;51.298;6.430;2023-08-01T12:15:54;18.70;99.90
35970;DHT22;22448;51.298;6.430;2023-08-01T12:18:24;19.00;99.90
35970;DHT22;22448;51.298;6.430;2023-08-01T12:20:55;19.40;99.90
35970;DHT22;22448;51.298;6.430;2023-08-01T12:23:22;20.00;99.90
35970;DHT22;22448;51.298;6.430;2023-08-01T12:25:49;20.60;99.90
35970;DHT22;22448;51.298;6.430;2023-08-01T12:28:16;21.00;99.90
35970;DHT22;22448;51.298;6.430;2023-08-01T12:30:43;21.30;99.90
35970;DHT22;22448;51.298;6.430;2023-08-01T12:33:11;21.80;99.90
35970;DHT22;22448;51.298;6.430;2023-08-01T12:35:41;22.00;99.90
35970;DHT22;22448;51.298;6.430;2023-08-01T12:38:09;22.30;99.90
35970;DHT22;22448;51.298;6.430;2023-08-01T12:40:36;22.50;99.90
35970;DHT22;22448;51.298;6.430;2023-08-01T12:43:03;22.60;99.90
35970;DHT22;22448;51.298;6.430;2023-08-01T12:45:32;22.80;99.90
35970;DHT22;22448;51.298;6.430;2023-08-01T12:47:59;22.70;99.90
35970;DHT22;22448;51.298;6.430;2023-08-01T12:50:26;22.80;99.90
35970;DHT22;22448;51.298;6.430;2023-08-01T12:52:53;22.80;99.90
35970;DHT22;22448;51.298;6.430;2023-08-01T12:55:21;22.80;99.90
35970;DHT22;22448;51.298;6.430;2023-08-01T12:57:48;23.00;99.90
35970;DHT22;22448;51.298;6.430;2023-08-01T13:00:15;23.00;99.90
35970;DHT22;22448;51.298;6.430;2023-08-01T13:02:42;23.30;99.90
35970;DHT22;22448;51.298;6.430;2023-08-01T13:05:09;23.10;99.90
35970;DHT22;22448;51.298;6.430;2023-08-01T13:07:36;22.70;99.90
35970;DHT22;22448;51.298;6.430;2023-08-01T13:10:04;22.20;99.90
35970;DHT22;22448;51.298;6.430;2023-08-01T13:12:30;22.00;99.90
35970;DHT22;22448;51.298;6.430;2023-08-01T13:14:58;22.10;99.90
35970;DHT22;22448;51.298;6.430;2023-08-01T13:17:43;22.10;99.90
35970;DHT22;22448;51.298;6.430;2023-08-01T13:20:11;22.20;99.90
35970;DHT22;22448;51.298;6.430;2023-08-01T13:22:38;22.30;99.90
35970;DHT22;22448;51.298;6.430;2023-08-01T13:25:05;22.80;99.90
35970;DHT22;22448;51.298;6.430;2023-08-01T13:27:34;23.20;99.90
35970;DHT22;22448;51.298;6.430;2023-08-01T13:30:03;23.60;99.90
35970;DHT22;22448;51.298;6.430;2023-08-01T13:32:30;23.60;99.90
35970;DHT22;22448;51.298;6.430;2023-08-01T13:34:57;23.30;99.90
35970;DHT22;22448;51.298;6.430;2023-08-01T13:37:24;23.00;99.90
35970;DHT22;22448;51.298;6.430;2023-08-01T13:39:51;22.90;99.90
35970;DHT22;22448;51.298;6.430;2023-08-01T13:42:18;23.00;99.90
35970;DHT22;22448;51.298;6.430;2023-08-01T13:44:45;23.00;99.90
35970;DHT22;22448;51.298;6.430;2023-08-01T13:47:12;23.00;99.90
35970;DHT22;22448;51.298;6.430;2023-08-01T13:49:39;22.70;99.90
35970;DHT22;22448;51.298;6.430;2023-08-01T13:52:06;22.50;99.90
35970;DHT22;22448;51.298;6.430;2023-08-01T13:54:34;22.40;99.90
35970;DHT22;22448;51.298;6.430;2023-08-01T13:57:01;22.20;99.90
35970;DHT22;22448;51.298;6.430;2023-08-01T13:59:28;22.40;99.90
35970;DHT22;22448;51.298;6.430;2023-08-01T14:01:56;22.50;99.90
35970;DHT22;22448;51.298;6.430;2023-08-01T14:04:23;22.80;99.90
35970;DHT22;22448;51.298;6.430;2023-08-01T14:06:50;23.10;99.90
35970;DHT22;22448;51.298;6.430;2023-08-01T14:09:17;23.10;99.90
35970;DHT22;22448;51.298;6.430;2023-08-01T14:11:44;23.10;99.90
35970;DHT22;22448;51.298;6.430;2023-08-01T14:14:11;23.00;99.90
35970;DHT22;22448;51.298;6.430;2023-08-01T14:16:38;22.60;99.90
35970;DHT22;22448;51.298;6.430;2023-08-01T14:19:06;22.50;99.90
35970;DHT22;22448;51.298;6.430;2023-08-01T14:21:34;22.50;99.90
35970;DHT22;22448;51.298;6.430;2023-08-01T14:24:01;22.50;99.90
35970;DHT22;22448;51.298;6.430;2023-08-01T14:26:28;22.70;99.90
35970;DHT22;22448;51.298;6.430;2023-08-01T14:28:55;22.80;99.90
35970;DHT22;22448;51.298;6.430;2023-08-01T14:31:22;22.90;99.90
35970;DHT22;22448;51.298;6.430;2023-08-01T14:33:49;22.80;99.90
35970;DHT22;22448;51.298;6.430;2023-08-01T14:36:16;23.00;99.90
35970;DHT22;22448;51.298;6.430;2023-08-01T14:38:43;23.10;99.90
35970;DHT22;22448;51.298;6.430;2023-08-01T14:41:10;23.30;99.90
35970;DHT22;22448;51.298;6.430;2023-08-01T14:43:58;23.50;99.90
35970;DHT22;22448;51.298;6.430;2023-08-01T14:46:25;23.60;99.90
35970;DHT22;22448;51.298;6.430;2023-08-01T14:48:52;23.20;99.90
35970;DHT22;22448;51.298;6.430;2023-08-01T14:51:19;23.10;99.90
35970;DHT22;22448;51.298;6.430;2023-08-01T14:53:46;22.80;99.90
35970;DHT22;22448;51.298;6.430;2023-08-01T14:56:13;22.70;99.90
35970;DHT22;22448;51.298;6.430;2023-08-01T14:58:40;22.80;99.90
35970;DHT22;22448;51.298;6.430;2023-08-01T15:01:26;22.90;99.90
35970;DHT22;22448;51.298;6.430;2023-08-01T15:03:53;23.00;99.90
35970;DHT22;22448;51.298;6.430;2023-08-01T15:06:20;23.20;99.90
35970;DHT22;22448;51.298;6.430;2023-08-01T15:08:48;23.50;99.90
35970;DHT22;22448;51.298;6.430;2023-08-01T15:11:15;23.40;99.90
35970;DHT22;22448;51.298;6.430;2023-08-01T15:13:42;23.20;99.90
35970;DHT22;22448;51.298;6.430;2023-08-01T15:16:10;22.70;99.90
35970;DHT22;22448;51.298;6.430;2023-08-01T15:18:38;22.40;99.90
35970;DHT22;22448;51.298;6.430;2023-08-01T15:21:05;22.10;99.90
35970;DHT22;22448;51.298;6.430;2023-08-01T15:23:32;21.90;99.90
35970;DHT22;22448;51.298;6.430;2023-08-01T15:25:59;21.70;99.90
35970;DHT22;22448;51.298;6.430;2023-08-01T15:28:26;21.90;99.90
35970;DHT22;22448;51.298;6.430;2023-08-01T15:31:07;21.90;99.90
35970;DHT22;22448;51.298;6.430;2023-08-01T15:33:36;22.20;99.90
35970;DHT22;22448;51.298;6.430;2023-08-01T15:36:05;22.30;99.90